sensor_id;sensor_type;location;lat;lon;timestamp;pressure;altitude;pressure_sealevel;temperature;humidity
59987;BME280;46181;51.498;5.392;2023-08-24T00:04:04;101681.8;;;24.79;50.23242
59987;BME280;46181;51.498;5.392;2023-08-24T00:08:34;101686;;;24.76;50.30078
59987;BME280;46181;51.498;5.392;2023-08-24T00:13:04;101689;;;24.74;50.37891
59987;BME280;46181;51.498;5.392;2023-08-24T00:17:34;101698.6;;;24.73;50.40039
59987;BME280;46181;51.498;5.392;2023-08-24T00:22:04;101676.7;;;24.7;50.50293
59987;BME280;46181;51.498;5.392;2023-08-24T00:26:34;101662.5;;;24.69;50.6543
59987;BME280;46181;51.498;5.392;2023-08-24T00:31:04;101666.8;;;24.64;50.79883
59987;BME280;46181;51.498;5.392;2023-08-24T00:35:34;101675.8;;;24.65;50.85938
59987;BME280;46181;51.498;5.392;2023-08-24T00:40:05;101662.3;;;24.65;50.90625
59987;BME280;46181;51.498;5.392;2023-08-24T00:44:34;101652.3;;;24.62;51.04199
59987;BME280;46181;51.498;5.392;2023-08-24T00:49:04;101645;;;24.6;51.16797
59987;BME280;46181;51.498;5.392;2023-08-24T00:53:35;101645.2;;;24.6;51.33008
59987;BME280;46181;51.498;5.392;2023-08-24T00:58:04;101659.4;;;24.61;51.33203
59987;BME280;46181;51.498;5.392;2023-08-24T01:07:04;101638.5;;;24.62;51.4375
59987;BME280;46181;51.498;5.392;2023-08-24T01:11:43;101644.7;;;24.6;51.57422
59987;BME280;46181;51.498;5.392;2023-08-24T01:16:08;101662.7;;;24.61;51.57617
59987;BME280;46181;51.498;5.392;2023-08-24T01:20:34;101654.3;;;24.63;51.56641
59987;BME280;46181;51.498;5.392;2023-08-24T01:25:10;101638;;;24.56;51.78027
59987;BME280;46181;51.498;5.392;2023-08-24T01:29:35;101637.3;;;24.59;51.80664
59987;BME280;46181;51.498;5.392;2023-08-24T01:34:04;101643.2;;;24.59;51.87598
59987;BME280;46181;51.498;5.392;2023-08-24T01:38:34;101640.5;;;24.62;51.86719
59987;BME280;46181;51.498;5.392;2023-08-24T01:43:07;101634.1;;;24.6;51.9707
59987;BME280;46181;51.498;5.392;2023-08-24T01:47:35;101633.1;;;24.64;51.91699
59987;BME280;46181;51.498;5.392;2023-08-24T01:52:05;101639.5;;;24.65;51.94141
59987;BME280;46181;51.498;5.392;2023-08-24T01:56:34;101643;;;24.69;51.93555
59987;BME280;46181;51.498;5.392;2023-08-24T02:01:04;101647.6;;;24.68;51.94531
59987;BME280;46181;51.498;5.392;2023-08-24T02:05:34;101642.3;;;24.71;51.97266
59987;BME280;46181;51.498;5.392;2023-08-24T02:10:05;101637.2;;;24.71;51.9502
59987;BME280;46181;51.498;5.392;2023-08-24T02:14:34;101614.1;;;24.7;51.94824
59987;BME280;46181;51.498;5.392;2023-08-24T02:19:04;101622.6;;;24.68;52.08594
59987;BME280;46181;51.498;5.392;2023-08-24T02:23:34;101632.6;;;24.7;52.16895
59987;BME280;46181;51.498;5.392;2023-08-24T02:28:05;101618.7;;;24.7;52.22656
59987;BME280;46181;51.498;5.392;2023-08-24T02:32:34;101620.9;;;24.7;52.22754
59987;BME280;46181;51.498;5.392;2023-08-24T02:37:05;101630;;;24.71;52.31055
59987;BME280;46181;51.498;5.392;2023-08-24T02:41:34;101619.9;;;24.73;52.3125
59987;BME280;46181;51.498;5.392;2023-08-24T02:46:08;101602.5;;;24.7;52.35449
59987;BME280;46181;51.498;5.392;2023-08-24T02:50:34;101590.2;;;24.68;52.43457
59987;BME280;46181;51.498;5.392;2023-08-24T02:55:05;101563.2;;;24.62;52.77637
59987;BME280;46181;51.498;5.392;2023-08-24T02:59:34;101558.7;;;24.57;53.17773
59987;BME280;46181;51.498;5.392;2023-08-24T03:04:04;101537.6;;;24.47;53.81738
59987;BME280;46181;51.498;5.392;2023-08-24T03:08:35;101503.4;;;24.33;54.51074
59987;BME280;46181;51.498;5.392;2023-08-24T03:13:04;101483;;;24.2;55.16992
59987;BME280;46181;51.498;5.392;2023-08-24T03:17:34;101505.8;;;24.12;55.68262
59987;BME280;46181;51.498;5.392;2023-08-24T03:22:04;101494.5;;;24.05;55.93945
59987;BME280;46181;51.498;5.392;2023-08-24T03:26:34;101469.8;;;23.99;56.22363
59987;BME280;46181;51.498;5.392;2023-08-24T03:31:06;101461;;;23.94;56.47168
59987;BME280;46181;51.498;5.392;2023-08-24T03:35:35;101446.2;;;23.94;56.63477
59987;BME280;46181;51.498;5.392;2023-08-24T03:40:05;101427.9;;;23.91;56.83984
59987;BME280;46181;51.498;5.392;2023-08-24T03:44:34;101418.7;;;23.92;57.06152
59987;BME280;46181;51.498;5.392;2023-08-24T03:49:04;101412.1;;;23.94;57.33203
59987;BME280;46181;51.498;5.392;2023-08-24T03:53:34;101418.8;;;23.97;57.56738
59987;BME280;46181;51.498;5.392;2023-08-24T03:58:04;101427.8;;;24.02;57.80664
59987;BME280;46181;51.498;5.392;2023-08-24T04:02:34;101432.6;;;24.09;57.9082
59987;BME280;46181;51.498;5.392;2023-08-24T04:07:04;101435.6;;;24.13;57.95898
59987;BME280;46181;51.498;5.392;2023-08-24T04:11:34;101448.6;;;24.14;57.94922
59987;BME280;46181;51.498;5.392;2023-08-24T04:16:04;101452.4;;;24.12;57.87793
59987;BME280;46181;51.498;5.392;2023-08-24T04:20:34;101453.7;;;24.1;57.9209
59987;BME280;46181;51.498;5.392;2023-08-24T04:25:05;101458.2;;;24.07;58.0332
59987;BME280;46181;51.498;5.392;2023-08-24T04:29:34;101466.1;;;24.02;57.91016
59987;BME280;46181;51.498;5.392;2023-08-24T04:34:04;101461.7;;;23.98;57.92871
59987;BME280;46181;51.498;5.392;2023-08-24T04:38:34;101457.1;;;23.97;58.10156
59987;BME280;46181;51.498;5.392;2023-08-24T04:43:04;101463.9;;;23.97;58.03223
59987;BME280;46181;51.498;5.392;2023-08-24T04:47:34;101459.4;;;23.94;57.99219
59987;BME280;46181;51.498;5.392;2023-08-24T04:52:04;101464;;;23.91;57.82617
59987;BME280;46181;51.498;5.392;2023-08-24T04:56:34;101455.8;;;23.86;57.80957
59987;BME280;46181;51.498;5.392;2023-08-24T05:01:04;101450.9;;;23.81;57.87207
59987;BME280;46181;51.498;5.392;2023-08-24T05:05:35;101455.1;;;23.78;57.92578
59987;BME280;46181;51.498;5.392;2023-08-24T05:10:07;101469.9;;;23.74;57.82813
59987;BME280;46181;51.498;5.392;2023-08-24T05:14:35;101475.9;;;23.72;57.84766
59987;BME280;46181;51.498;5.392;2023-08-24T05:19:04;101459.1;;;23.7;58.14648
59987;BME280;46181;51.498;5.392;2023-08-24T05:23:34;101457.6;;;23.76;58.21387
59987;BME280;46181;51.498;5.392;2023-08-24T05:28:05;101440.4;;;23.82;58.38379
59987;BME280;46181;51.498;5.392;2023-08-24T05:32:34;101435.4;;;23.92;58.28027
59987;BME280;46181;51.498;5.392;2023-08-24T05:37:04;101441.4;;;23.99;58.3584
59987;BME280;46181;51.498;5.392;2023-08-24T05:41:34;101437.3;;;24.07;58.43945
59987;BME280;46181;51.498;5.392;2023-08-24T05:46:05;101434.2;;;24.21;58.15527
59987;BME280;46181;51.498;5.392;2023-08-24T05:50:34;101427.3;;;24.33;57.88086
59987;BME280;46181;51.498;5.392;2023-08-24T05:55:04;101428.5;;;24.44;57.75488
59987;BME280;46181;51.498;5.392;2023-08-24T05:59:34;101412.3;;;24.5;57.51855
59987;BME280;46181;51.498;5.392;2023-08-24T06:04:04;101393.8;;;24.58;57.4834
59987;BME280;46181;51.498;5.392;2023-08-24T06:08:34;101386.3;;;24.66;57.29492
59987;BME280;46181;51.498;5.392;2023-08-24T06:13:04;101364.8;;;24.79;57.1377
59987;BME280;46181;51.498;5.392;2023-08-24T06:17:34;101358.3;;;24.95;56.83105
59987;BME280;46181;51.498;5.392;2023-08-24T06:22:04;101369.8;;;25.09;56.57031
59987;BME280;46181;51.498;5.392;2023-08-24T06:26:34;101378.7;;;25.26;56.08984
59987;BME280;46181;51.498;5.392;2023-08-24T06:31:04;101381.8;;;25.41;55.80664
59987;BME280;46181;51.498;5.392;2023-08-24T06:35:34;101383.1;;;25.58;55.40723
59987;BME280;46181;51.498;5.392;2023-08-24T06:40:05;101383.8;;;25.77;54.8125
59987;BME280;46181;51.498;5.392;2023-08-24T06:44:34;101376.2;;;25.88;54.58203
59987;BME280;46181;51.498;5.392;2023-08-24T06:49:04;101384.2;;;25.97;53.79883
59987;BME280;46181;51.498;5.392;2023-08-24T06:53:34;101385.1;;;26.12;53.67578
59987;BME280;46181;51.498;5.392;2023-08-24T06:58:04;101380.6;;;26.31;52.98633
59987;BME280;46181;51.498;5.392;2023-08-24T07:02:34;101380.6;;;26.44;52.91992
59987;BME280;46181;51.498;5.392;2023-08-24T07:07:04;101375.5;;;26.61;52.20215
59987;BME280;46181;51.498;5.392;2023-08-24T07:11:34;101363.6;;;26.78;51.53125
59987;BME280;46181;51.498;5.392;2023-08-24T07:16:04;101357.4;;;26.94;51.0127
59987;BME280;46181;51.498;5.392;2023-08-24T07:20:36;101347.7;;;27.06;50.62695
59987;BME280;46181;51.498;5.392;2023-08-24T07:25:05;101347.3;;;27.21;50.67871
59987;BME280;46181;51.498;5.392;2023-08-24T07:29:35;101352.6;;;27.47;50.36816
59987;BME280;46181;51.498;5.392;2023-08-24T07:34:04;101346.1;;;27.69;49.66504
59987;BME280;46181;51.498;5.392;2023-08-24T07:38:34;101344.6;;;27.89;49.42969
59987;BME280;46181;51.498;5.392;2023-08-24T07:43:04;101346.7;;;28.12;48.82031
59987;BME280;46181;51.498;5.392;2023-08-24T07:47:34;101338;;;28.29;48.16895
59987;BME280;46181;51.498;5.392;2023-08-24T07:52:04;101340.2;;;28.43;48.25488
59987;BME280;46181;51.498;5.392;2023-08-24T07:56:34;101344.5;;;28.53;47.8291
59987;BME280;46181;51.498;5.392;2023-08-24T08:01:04;101353.3;;;28.66;47.27832
59987;BME280;46181;51.498;5.392;2023-08-24T08:05:34;101354.6;;;28.82;46.53027
59987;BME280;46181;51.498;5.392;2023-08-24T08:10:05;101340.2;;;28.87;46.7832
59987;BME280;46181;51.498;5.392;2023-08-24T08:14:34;101349.9;;;29.04;46.25879
59987;BME280;46181;51.498;5.392;2023-08-24T08:19:04;101335.5;;;29.1;45.99414
59987;BME280;46181;51.498;5.392;2023-08-24T08:23:34;101324.1;;;29.28;45.64648
59987;BME280;46181;51.498;5.392;2023-08-24T08:28:05;101307.9;;;29.36;45.10059
59987;BME280;46181;51.498;5.392;2023-08-24T08:32:34;101316.8;;;29.38;45.04395
59987;BME280;46181;51.498;5.392;2023-08-24T08:37:04;101324.3;;;29.47;45.00586
59987;BME280;46181;51.498;5.392;2023-08-24T08:41:41;101303;;;29.62;45.02051
59987;BME280;46181;51.498;5.392;2023-08-24T08:46:05;101297;;;29.82;44.27246
59987;BME280;46181;51.498;5.392;2023-08-24T08:50:35;101281.3;;;29.92;44.6123
59987;BME280;46181;51.498;5.392;2023-08-24T08:55:05;101267.4;;;30.06;43.92871
59987;BME280;46181;51.498;5.392;2023-08-24T08:59:36;101257.5;;;30.13;43.9248
59987;BME280;46181;51.498;5.392;2023-08-24T09:04:06;101237.8;;;30.13;43.35742
59987;BME280;46181;51.498;5.392;2023-08-24T09:08:35;101219.2;;;30.17;43.41992
59987;BME280;46181;51.498;5.392;2023-08-24T09:13:05;101213.4;;;30.35;43.66211
59987;BME280;46181;51.498;5.392;2023-08-24T09:17:35;101202.3;;;30.46;43.23535
59987;BME280;46181;51.498;5.392;2023-08-24T09:22:05;101194.5;;;30.46;42.84473
59987;BME280;46181;51.498;5.392;2023-08-24T09:26:44;101180.5;;;30.4;42.7793
59987;BME280;46181;51.498;5.392;2023-08-24T09:31:09;101184.9;;;30.52;42.88574
59987;BME280;46181;51.498;5.392;2023-08-24T09:35:36;101194.1;;;30.58;42.85645
59987;BME280;46181;51.498;5.392;2023-08-24T09:40:10;101215.9;;;30.74;43.00098
59987;BME280;46181;51.498;5.392;2023-08-24T09:44:36;101238;;;30.9;43.1582
59987;BME280;46181;51.498;5.392;2023-08-24T09:49:08;101246.3;;;31.05;42.73535
59987;BME280;46181;51.498;5.392;2023-08-24T09:53:37;101240;;;31.21;42.63184
59987;BME280;46181;51.498;5.392;2023-08-24T09:58:06;101249.8;;;31.28;42.83887
59987;BME280;46181;51.498;5.392;2023-08-24T10:02:38;101257.7;;;31.4;42.95703
59987;BME280;46181;51.498;5.392;2023-08-24T10:07:09;101266.2;;;31.5;42.89453
59987;BME280;46181;51.498;5.392;2023-08-24T10:11:42;101273.2;;;31.55;42.76953
59987;BME280;46181;51.498;5.392;2023-08-24T10:16:05;101272;;;31.57;42.0127
59987;BME280;46181;51.498;5.392;2023-08-24T10:20:35;101265.2;;;31.46;42.47656
59987;BME280;46181;51.498;5.392;2023-08-24T10:25:05;101258.9;;;31.37;42.76465
59987;BME280;46181;51.498;5.392;2023-08-24T10:29:36;101260.8;;;31.26;42.71875
59987;BME280;46181;51.498;5.392;2023-08-24T10:34:05;101282.4;;;31.16;43.05273
59987;BME280;46181;51.498;5.392;2023-08-24T10:38:39;101284.4;;;31.03;43.27832
59987;BME280;46181;51.498;5.392;2023-08-24T10:43:08;101296.8;;;30.94;43.38672
59987;BME280;46181;51.498;5.392;2023-08-24T10:47:35;101304.9;;;30.81;43.36328
59987;BME280;46181;51.498;5.392;2023-08-24T10:52:21;101299;;;30.75;43.68848
59987;BME280;46181;51.498;5.392;2023-08-24T10:56:41;101293.3;;;30.61;43.93457
59987;BME280;46181;51.498;5.392;2023-08-24T11:01:06;101269.2;;;30.68;44.29785
59987;BME280;46181;51.498;5.392;2023-08-24T11:05:35;101284.8;;;30.82;44.0498
59987;BME280;46181;51.498;5.392;2023-08-24T11:10:14;101271.8;;;30.93;44.32129
59987;BME280;46181;51.498;5.392;2023-08-24T11:14:36;101252.6;;;30.98;44.43262
59987;BME280;46181;51.498;5.392;2023-08-24T11:19:05;101239.8;;;31.05;44.62891
59987;BME280;46181;51.498;5.392;2023-08-24T11:23:35;101217.1;;;31.04;45.04297
59987;BME280;46181;51.498;5.392;2023-08-24T11:28:06;101204.7;;;30.97;45.16602
59987;BME280;46181;51.498;5.392;2023-08-24T11:32:35;101213.3;;;30.79;45.88086
59987;BME280;46181;51.498;5.392;2023-08-24T11:37:05;101214.9;;;30.53;46.84766
59987;BME280;46181;51.498;5.392;2023-08-24T11:41:35;101206.5;;;30.33;47.70117
59987;BME280;46181;51.498;5.392;2023-08-24T11:46:05;101174.9;;;30.29;48.25098
59987;BME280;46181;51.498;5.392;2023-08-24T11:50:37;101140;;;30.32;48.41992
59987;BME280;46181;51.498;5.392;2023-08-24T11:55:07;101121.1;;;30.42;48.1123
59987;BME280;46181;51.498;5.392;2023-08-24T11:59:35;101104.7;;;30.62;47.54199
59987;BME280;46181;51.498;5.392;2023-08-24T12:04:05;101080.2;;;30.79;47.72559
59987;BME280;46181;51.498;5.392;2023-08-24T12:08:36;101101.5;;;31.01;47.05078
59987;BME280;46181;51.498;5.392;2023-08-24T12:13:14;101092.2;;;31.25;46.82715
59987;BME280;46181;51.498;5.392;2023-08-24T12:17:41;101064.4;;;31.51;44.92285
59987;BME280;46181;51.498;5.392;2023-08-24T12:22:05;101066.3;;;31.5;44.4834
59987;BME280;46181;51.498;5.392;2023-08-24T12:26:35;101094.3;;;31.49;44.24609
59987;BME280;46181;51.498;5.392;2023-08-24T12:31:05;101126.2;;;31.57;44.14648
59987;BME280;46181;51.498;5.392;2023-08-24T12:35:35;101132.3;;;31.66;44.11914
59987;BME280;46181;51.498;5.392;2023-08-24T12:40:05;101134.3;;;31.74;44.00879
59987;BME280;46181;51.498;5.392;2023-08-24T12:44:35;101136.9;;;31.77;44.34375
59987;BME280;46181;51.498;5.392;2023-08-24T12:49:05;101135;;;31.81;44.37207
59987;BME280;46181;51.498;5.392;2023-08-24T12:53:35;101131.6;;;31.87;44.05762
59987;BME280;46181;51.498;5.392;2023-08-24T12:58:05;101132.5;;;31.86;43.88965
59987;BME280;46181;51.498;5.392;2023-08-24T13:02:35;101141.3;;;31.82;43.89844
59987;BME280;46181;51.498;5.392;2023-08-24T13:07:05;101132.6;;;31.74;44.19922
59987;BME280;46181;51.498;5.392;2023-08-24T13:11:35;101126.6;;;31.67;44.54688
59987;BME280;46181;51.498;5.392;2023-08-24T13:16:05;101127.6;;;31.6;44.64746
59987;BME280;46181;51.498;5.392;2023-08-24T13:20:35;101130.2;;;31.51;44.65039
59987;BME280;46181;51.498;5.392;2023-08-24T13:25:05;101122;;;31.35;44.62305
59987;BME280;46181;51.498;5.392;2023-08-24T13:29:35;101112.8;;;31.28;44.90137
59987;BME280;46181;51.498;5.392;2023-08-24T13:34:05;101104.2;;;31.26;45.11133
59987;BME280;46181;51.498;5.392;2023-08-24T13:38:35;101091.6;;;31.23;44.74121
59987;BME280;46181;51.498;5.392;2023-08-24T13:43:05;101095.8;;;31.13;44.6123
59987;BME280;46181;51.498;5.392;2023-08-24T13:47:35;101101.9;;;31.01;44.70801
59987;BME280;46181;51.498;5.392;2023-08-24T13:52:05;101102.1;;;30.87;44.9668
59987;BME280;46181;51.498;5.392;2023-08-24T13:56:35;101101.8;;;30.76;45.38184
59987;BME280;46181;51.498;5.392;2023-08-24T14:01:07;101081.7;;;30.58;45.62305
59987;BME280;46181;51.498;5.392;2023-08-24T14:05:35;101082.8;;;30.47;45.8252
59987;BME280;46181;51.498;5.392;2023-08-24T14:10:05;101091.2;;;30.35;46.29688
59987;BME280;46181;51.498;5.392;2023-08-24T14:14:35;101080.4;;;30.26;46.33594
59987;BME280;46181;51.498;5.392;2023-08-24T14:19:05;101081.4;;;30.2;46.45898
59987;BME280;46181;51.498;5.392;2023-08-24T14:23:35;101064.5;;;30.13;46.59473
59987;BME280;46181;51.498;5.392;2023-08-24T14:28:05;101055;;;30.1;46.54395
59987;BME280;46181;51.498;5.392;2023-08-24T14:32:35;101040.3;;;30.09;46.65918
59987;BME280;46181;51.498;5.392;2023-08-24T14:37:05;101047.2;;;30.09;46.75488
59987;BME280;46181;51.498;5.392;2023-08-24T14:41:35;101038.2;;;30.04;46.52637
59987;BME280;46181;51.498;5.392;2023-08-24T14:46:05;101038.3;;;30;46.95898
59987;BME280;46181;51.498;5.392;2023-08-24T14:50:35;101041.7;;;30.02;46.93652
59987;BME280;46181;51.498;5.392;2023-08-24T14:55:05;101055.8;;;30.02;46.87793
59987;BME280;46181;51.498;5.392;2023-08-24T14:59:35;101051.1;;;29.98;46.87402
59987;BME280;46181;51.498;5.392;2023-08-24T15:04:05;101051;;;29.98;47.00391
59987;BME280;46181;51.498;5.392;2023-08-24T15:08:35;101040;;;29.91;46.96094
59987;BME280;46181;51.498;5.392;2023-08-24T15:13:05;101039.7;;;29.93;47.1748
59987;BME280;46181;51.498;5.392;2023-08-24T15:17:35;101028.1;;;29.91;46.80762
59987;BME280;46181;51.498;5.392;2023-08-24T15:22:05;101023.2;;;29.9;46.86523
59987;BME280;46181;51.498;5.392;2023-08-24T15:26:35;101003.1;;;29.88;47.02734
59987;BME280;46181;51.498;5.392;2023-08-24T15:31:05;101002.8;;;29.9;47.05371
59987;BME280;46181;51.498;5.392;2023-08-24T15:35:35;101002.5;;;29.91;47.03125
59987;BME280;46181;51.498;5.392;2023-08-24T15:40:05;101010.8;;;29.88;47.0166
59987;BME280;46181;51.498;5.392;2023-08-24T15:44:35;101009.4;;;29.9;46.88867
59987;BME280;46181;51.498;5.392;2023-08-24T15:49:05;101000.9;;;29.96;46.85938
59987;BME280;46181;51.498;5.392;2023-08-24T15:53:35;100988.3;;;30.05;46.7041
59987;BME280;46181;51.498;5.392;2023-08-24T15:58:08;100987.2;;;30.18;46.5293
59987;BME280;46181;51.498;5.392;2023-08-24T16:02:35;100969.1;;;30.25;46.44141
59987;BME280;46181;51.498;5.392;2023-08-24T16:07:05;100951.2;;;30.28;46.20801
59987;BME280;46181;51.498;5.392;2023-08-24T16:11:35;100952.4;;;30.28;46.31445
59987;BME280;46181;51.498;5.392;2023-08-24T16:16:05;100945;;;30.3;46.30469
59987;BME280;46181;51.498;5.392;2023-08-24T16:20:35;100948.8;;;30.32;46.31836
59987;BME280;46181;51.498;5.392;2023-08-24T16:25:05;100947.3;;;30.34;46.08398
59987;BME280;46181;51.498;5.392;2023-08-24T16:29:35;100951.2;;;30.29;45.68945
59987;BME280;46181;51.498;5.392;2023-08-24T16:34:05;100950.5;;;30.19;45.8916
59987;BME280;46181;51.498;5.392;2023-08-24T16:38:35;100945.6;;;30.1;45.80078
59987;BME280;46181;51.498;5.392;2023-08-24T16:43:05;100944.6;;;30.11;45.94238
59987;BME280;46181;51.498;5.392;2023-08-24T16:47:35;100910.5;;;30.15;45.73438
59987;BME280;46181;51.498;5.392;2023-08-24T16:52:05;100910.7;;;30.12;45.44824
59987;BME280;46181;51.498;5.392;2023-08-24T16:56:35;100917.9;;;30.11;45.8125
59987;BME280;46181;51.498;5.392;2023-08-24T17:01:09;100917.1;;;30.14;45.67285
59987;BME280;46181;51.498;5.392;2023-08-24T17:05:35;100913.7;;;30.11;45.76465
59987;BME280;46181;51.498;5.392;2023-08-24T17:10:06;100916.3;;;30.09;45.75098
59987;BME280;46181;51.498;5.392;2023-08-24T17:14:35;100905.5;;;30.05;45.85449
59987;BME280;46181;51.498;5.392;2023-08-24T17:19:05;100900.8;;;30;46.16699
59987;BME280;46181;51.498;5.392;2023-08-24T17:23:35;100898.6;;;29.98;46.05957
59987;BME280;46181;51.498;5.392;2023-08-24T17:28:05;100894.4;;;29.93;46.25488
59987;BME280;46181;51.498;5.392;2023-08-24T17:32:35;100883.3;;;29.85;46.29395
59987;BME280;46181;51.498;5.392;2023-08-24T17:37:05;100877.4;;;29.82;46.44531
59987;BME280;46181;51.498;5.392;2023-08-24T17:41:36;100883.2;;;29.79;46.75977
59987;BME280;46181;51.498;5.392;2023-08-24T17:46:05;100875.6;;;29.79;46.59375
59987;BME280;46181;51.498;5.392;2023-08-24T17:50:35;100876.3;;;29.76;46.60352
59987;BME280;46181;51.498;5.392;2023-08-24T17:55:05;100882.2;;;29.69;46.79688
59987;BME280;46181;51.498;5.392;2023-08-24T17:59:35;100877.3;;;29.62;46.86035
59987;BME280;46181;51.498;5.392;2023-08-24T18:04:05;100861.8;;;29.54;47.11133
59987;BME280;46181;51.498;5.392;2023-08-24T18:08:35;100864.6;;;29.44;47.07715
59987;BME280;46181;51.498;5.392;2023-08-24T18:13:05;100873.3;;;29.34;47.46777
59987;BME280;46181;51.498;5.392;2023-08-24T18:17:35;100874.9;;;29.26;47.65918
59987;BME280;46181;51.498;5.392;2023-08-24T18:22:05;100890.4;;;29.15;47.9541
59987;BME280;46181;51.498;5.392;2023-08-24T18:26:35;100881.7;;;29.04;48.10742
59987;BME280;46181;51.498;5.392;2023-08-24T18:31:09;100886.7;;;28.94;48.39063
59987;BME280;46181;51.498;5.392;2023-08-24T18:35:35;100900.3;;;28.91;48.58887
59987;BME280;46181;51.498;5.392;2023-08-24T18:40:06;100898.8;;;28.88;48.78418
59987;BME280;46181;51.498;5.392;2023-08-24T18:44:35;100899.8;;;28.82;49.04883
59987;BME280;46181;51.498;5.392;2023-08-24T18:49:05;100912.8;;;28.76;49.25391
59987;BME280;46181;51.498;5.392;2023-08-24T18:53:35;100939.4;;;28.7;49.57617
59987;BME280;46181;51.498;5.392;2023-08-24T18:58:05;100922.6;;;28.64;49.66406
59987;BME280;46181;51.498;5.392;2023-08-24T19:02:35;100906;;;28.59;49.84668
59987;BME280;46181;51.498;5.392;2023-08-24T19:07:05;100879.8;;;28.55;49.9834
59987;BME280;46181;51.498;5.392;2023-08-24T19:11:35;100898.5;;;28.53;50.05176
59987;BME280;46181;51.498;5.392;2023-08-24T19:16:07;100914.7;;;28.46;50.33887
59987;BME280;46181;51.498;5.392;2023-08-24T19:20:35;100873.7;;;28.35;50.73633
59987;BME280;46181;51.498;5.392;2023-08-24T19:25:05;100874.4;;;28.26;50.99707
59987;BME280;46181;51.498;5.392;2023-08-24T19:29:35;100885.7;;;28.21;51.2959
59987;BME280;46181;51.498;5.392;2023-08-24T19:34:05;100902.1;;;28.15;51.50098
59987;BME280;46181;51.498;5.392;2023-08-24T19:38:35;100893.2;;;28.08;51.61035
59987;BME280;46181;51.498;5.392;2023-08-24T19:43:05;100890.2;;;28;51.78906
59987;BME280;46181;51.498;5.392;2023-08-24T19:47:35;100880.4;;;27.91;52.02441
59987;BME280;46181;51.498;5.392;2023-08-24T19:52:05;100883.8;;;27.84;52.2168
59987;BME280;46181;51.498;5.392;2023-08-24T19:56:35;100874.3;;;27.76;52.40527
59987;BME280;46181;51.498;5.392;2023-08-24T20:01:05;100867.9;;;27.7;52.63379
59987;BME280;46181;51.498;5.392;2023-08-24T20:05:36;100858.7;;;27.64;52.75586
59987;BME280;46181;51.498;5.392;2023-08-24T20:10:06;100848.8;;;27.6;52.84375
59987;BME280;46181;51.498;5.392;2023-08-24T20:14:35;100834.4;;;27.54;52.9082
59987;BME280;46181;51.498;5.392;2023-08-24T20:19:05;100853.6;;;27.48;53.05371
59987;BME280;46181;51.498;5.392;2023-08-24T20:23:37;100862.9;;;27.43;53.21191
59987;BME280;46181;51.498;5.392;2023-08-24T20:28:06;100877.9;;;27.37;53.42773
59987;BME280;46181;51.498;5.392;2023-08-24T20:32:35;100883.3;;;27.34;53.66797
59987;BME280;46181;51.498;5.392;2023-08-24T20:37:05;100901.8;;;27.33;53.99609
59987;BME280;46181;51.498;5.392;2023-08-24T20:41:35;100898;;;27.35;53.95117
59987;BME280;46181;51.498;5.392;2023-08-24T20:46:05;100900.3;;;27.36;53.95215
59987;BME280;46181;51.498;5.392;2023-08-24T20:50:35;100937.2;;;27.36;54.2334
59987;BME280;46181;51.498;5.392;2023-08-24T20:55:05;100953.5;;;27.13;55.12988
59987;BME280;46181;51.498;5.392;2023-08-24T20:59:35;100945.4;;;26.88;56.22168
59987;BME280;46181;51.498;5.392;2023-08-24T21:04:05;100963.1;;;26.64;57.24316
59987;BME280;46181;51.498;5.392;2023-08-24T21:08:35;100978.5;;;26.47;58.33105
59987;BME280;46181;51.498;5.392;2023-08-24T21:13:05;100968.6;;;26.3;59.24121
59987;BME280;46181;51.498;5.392;2023-08-24T21:17:35;100968.4;;;26.18;59.98438
59987;BME280;46181;51.498;5.392;2023-08-24T21:22:05;100964.7;;;26.07;60.50586
59987;BME280;46181;51.498;5.392;2023-08-24T21:26:35;100970.3;;;25.98;61.05273
59987;BME280;46181;51.498;5.392;2023-08-24T21:31:07;100948.9;;;25.89;61.38965
59987;BME280;46181;51.498;5.392;2023-08-24T21:35:35;100956.5;;;25.86;60.49023
59987;BME280;46181;51.498;5.392;2023-08-24T21:40:06;100935.7;;;25.75;60.25391
59987;BME280;46181;51.498;5.392;2023-08-24T21:44:35;100943.6;;;25.72;60.00488
59987;BME280;46181;51.498;5.392;2023-08-24T21:49:05;100930.8;;;25.64;59.84277
59987;BME280;46181;51.498;5.392;2023-08-24T21:53:35;100915.2;;;25.51;59.97754
59987;BME280;46181;51.498;5.392;2023-08-24T21:58:05;100880.3;;;25.42;60.07031
59987;BME280;46181;51.498;5.392;2023-08-24T22:02:35;100853.7;;;25.32;60.3125
59987;BME280;46181;51.498;5.392;2023-08-24T22:07:05;100740.8;;;25.27;60.3623
59987;BME280;46181;51.498;5.392;2023-08-24T22:11:35;100725;;;25.23;60.47461
59987;BME280;46181;51.498;5.392;2023-08-24T22:16:05;100732.2;;;25.2;60.56445
59987;BME280;46181;51.498;5.392;2023-08-24T22:20:35;100711.7;;;25.2;60.56348
59987;BME280;46181;51.498;5.392;2023-08-24T22:25:05;100740.3;;;25.2;60.59766
59987;BME280;46181;51.498;5.392;2023-08-24T22:29:35;100822;;;25.19;60.64355
59987;BME280;46181;51.498;5.392;2023-08-24T22:34:05;100841.6;;;25.16;60.74316
59987;BME280;46181;51.498;5.392;2023-08-24T22:38:35;100831;;;25.19;60.49316
59987;BME280;46181;51.498;5.392;2023-08-24T22:43:05;100811.8;;;25.23;60.41699
59987;BME280;46181;51.498;5.392;2023-08-24T22:47:35;100820.4;;;25.23;60.26563
59987;BME280;46181;51.498;5.392;2023-08-24T22:52:05;100808.5;;;25.26;60.1416
59987;BME280;46181;51.498;5.392;2023-08-24T22:56:35;100809.8;;;25.23;60.05664
59987;BME280;46181;51.498;5.392;2023-08-24T23:01:12;100807.9;;;25.19;60.02734
59987;BME280;46181;51.498;5.392;2023-08-24T23:05:35;100826;;;25.17;59.99023
59987;BME280;46181;51.498;5.392;2023-08-24T23:10:06;100819;;;25.14;60.01953